Time;durP1;ratioP1;P1;durP2;ratioP2;P2;SDS_P1;SDS_P2;PMS_P1;PMS_P2;Temp;Humidity;BMP_temperature;BMP_pressure;BME280_temperature;BME280_humidity;BME280_pressure;Samples;Min_cycle;Max_cycle;Signal;HPM_P1;HPM_P2
2022/12/13 00:00:17;;;;;;;63.95;23.90;;;;;;;-5.97;100.00;100968.47;4943675;28;20038;-82
2022/12/13 00:02:45;;;;;;;68.40;25.00;;;;;;;-5.96;100.00;100975.19;4945439;28;20108;-79
2022/12/13 00:05:12;;;;;;;61.03;21.95;;;;;;;-5.98;100.00;100970.19;4971776;28;20046;-81
2022/12/13 00:07:38;;;;;;;61.45;23.58;;;;;;;-5.98;100.00;100969.38;4938371;28;20480;-81
2022/12/13 00:10:04;;;;;;;66.63;23.08;;;;;;;-5.98;100.00;100967.66;4947569;28;20170;-81
2022/12/13 00:12:31;;;;;;;54.50;22.02;;;;;;;-5.99;100.00;100963.50;4946123;28;20067;-80
2022/12/13 00:14:56;;;;;;;58.40;21.48;;;;;;;-6.00;100.00;100963.53;4957443;28;20023;-81
2022/12/13 00:17:22;;;;;;;56.55;21.67;;;;;;;-6.02;100.00;100960.22;4940379;28;20033;-81
2022/12/13 00:19:47;;;;;;;56.92;21.90;;;;;;;-6.02;100.00;100960.22;4947039;28;20532;-80
2022/12/13 00:22:13;;;;;;;60.53;22.08;;;;;;;-6.07;100.00;100955.31;4948619;28;20050;-81
2022/12/13 00:24:39;;;;;;;51.10;21.10;;;;;;;-6.09;100.00;100962.09;4930515;28;20680;-80
2022/12/13 00:27:05;;;;;;;56.60;20.80;;;;;;;-6.11;100.00;100961.31;4950857;28;20034;-79
2022/12/13 00:29:31;;;;;;;61.63;22.80;;;;;;;-6.14;100.00;100954.66;4941027;28;20042;-81
2022/12/13 00:31:57;;;;;;;71.45;22.27;;;;;;;-6.14;100.00;100956.34;4943092;28;20066;-80
2022/12/13 00:34:23;;;;;;;60.25;21.35;;;;;;;-6.17;100.00;100953.94;4943181;28;20047;-79
2022/12/13 00:36:49;;;;;;;60.22;22.50;;;;;;;-6.19;100.00;100963.25;4947074;28;20090;-81
2022/12/13 00:39:15;;;;;;;53.45;19.77;;;;;;;-6.22;100.00;100956.56;4944611;28;20043;-80
2022/12/13 00:41:45;;;;;;;56.95;21.58;;;;;;;-6.24;100.00;100960.84;4941372;28;20046;-80
2022/12/13 00:44:12;;;;;;;52.47;21.05;;;;;;;-6.25;100.00;100949.13;4950474;28;20595;-80
2022/12/13 00:46:39;;;;;;;55.80;21.20;;;;;;;-6.27;100.00;100955.91;4945192;28;20039;-79
2022/12/13 00:49:04;;;;;;;58.00;20.75;;;;;;;-6.29;100.00;100947.53;4943296;28;20489;-80
2022/12/13 00:51:32;;;;;;;58.97;21.08;;;;;;;-6.32;100.00;100953.50;4941088;28;20035;-81
2022/12/13 00:53:59;;;;;;;60.17;22.73;;;;;;;-6.32;100.00;100955.19;4943852;28;20054;-79
2022/12/13 00:56:29;;;;;;;52.00;20.45;;;;;;;-6.33;100.00;100953.53;4953956;28;20038;-80
2022/12/13 00:58:55;;;;;;;62.70;21.60;;;;;;;-6.36;100.00;100951.13;4942288;28;20082;-80
2022/12/13 01:01:23;;;;;;;57.53;21.70;;;;;;;-6.38;100.00;100948.63;4941865;28;20043;-80
2022/12/13 01:03:49;;;;;;;59.28;21.85;;;;;;;-6.39;100.00;100953.72;4959291;28;20103;-81
2022/12/13 01:06:19;;;;;;;50.65;19.98;;;;;;;-6.39;100.00;100956.25;4946067;28;20125;-82
2022/12/13 01:08:45;;;;;;;52.10;20.92;;;;;;;-6.41;100.00;100955.47;4957677;28;20122;-81
2022/12/13 01:11:11;;;;;;;56.10;19.95;;;;;;;-6.43;100.00;100954.69;4933862;28;20073;-80
2022/12/13 01:13:37;;;;;;;50.50;19.23;;;;;;;-6.42;100.00;100958.84;4947641;28;20479;-81
2022/12/13 01:16:05;;;;;;;55.42;21.73;;;;;;;-6.43;100.00;100952.97;4961251;28;20065;-80
2022/12/13 01:18:31;;;;;;;59.17;21.42;;;;;;;-6.43;100.00;100954.69;4942939;28;20501;-83
2022/12/13 01:21:06;;;;;;;51.78;19.75;;;;;;;-6.47;100.00;100951.41;4935954;28;20066;-80
2022/12/13 01:23:32;;;;;;;62.33;22.48;;;;;;;-6.45;100.00;100949.66;4946613;28;20040;-82
2022/12/13 01:26:01;;;;;;;57.85;21.45;;;;;;;-6.47;100.00;100954.75;4948647;28;20031;-82
2022/12/13 01:28:27;;;;;;;55.65;20.58;;;;;;;-6.50;100.00;100951.50;4947512;28;20792;-81
2022/12/13 01:30:58;;;;;;;55.40;22.20;;;;;;;-6.51;100.00;100957.44;4950156;28;20031;-82
2022/12/13 01:33:25;;;;;;;53.40;20.92;;;;;;;-6.53;100.00;100957.47;4942656;28;20046;-80
2022/12/13 01:35:51;;;;;;;62.08;21.58;;;;;;;-6.55;100.00;100959.19;4948449;28;20027;-80
2022/12/13 01:38:17;;;;;;;59.55;21.25;;;;;;;-6.59;100.00;100955.13;4945964;28;20958;-79
2022/12/13 01:40:49;;;;;;;57.22;21.35;;;;;;;-6.61;100.00;100951.81;4957900;28;20125;-81
2022/12/13 01:43:15;;;;;;;52.05;21.00;;;;;;;-6.60;100.00;100950.94;4937721;28;20059;-80
2022/12/13 01:45:42;;;;;;;60.17;20.85;;;;;;;-6.61;100.00;100956.84;4948458;28;20497;-81
2022/12/13 01:48:19;;;;;;;53.88;20.20;;;;;;;-6.62;100.00;100954.38;4951013;28;20134;-82
2022/12/13 01:50:48;;;;;;;55.72;20.77;;;;;;;-6.63;100.00;100957.75;4952240;28;20039;-81
2022/12/13 01:53:18;;;;;;;51.40;18.52;;;;;;;-6.64;100.00;100953.59;4933457;28;20572;-81
2022/12/13 01:55:49;;;;;;;55.42;20.52;;;;;;;-6.65;100.00;100955.25;4939119;28;20036;-82
2022/12/13 01:58:15;;;;;;;56.38;21.73;;;;;;;-6.67;100.00;100947.75;4952263;28;20066;-82
2022/12/13 02:00:43;;;;;;;65.47;20.73;;;;;;;-6.68;100.00;100950.31;4946705;28;20035;-80
2022/12/13 02:03:09;;;;;;;54.67;20.88;;;;;;;-6.70;100.00;100952.06;4974443;28;20443;-81
2022/12/13 02:05:46;;;;;;;55.05;21.52;;;;;;;-6.73;100.00;100958.00;4946020;28;20031;-82
2022/12/13 02:08:14;;;;;;;71.60;22.25;;;;;;;-6.76;100.00;100962.28;4943274;28;20459;-82
2022/12/13 02:10:41;;;;;;;53.75;21.58;;;;;;;-6.77;100.00;100953.91;4946714;28;20063;-81
2022/12/13 02:13:07;;;;;;;58.65;21.55;;;;;;;-6.78;100.00;100957.31;4943049;28;20046;-81
2022/12/13 02:16:07;;;;;;;59.90;21.90;;;;;;;-6.78;100.00;100954.78;4946081;28;20444;-80
2022/12/13 02:18:48;;;;;;;60.47;21.50;;;;;;;-6.76;100.00;100957.25;4949485;28;20051;-81
2022/12/13 02:21:29;;;;;;;61.92;21.17;;;;;;;-6.77;100.00;100960.66;4949214;28;20042;-81
2022/12/13 02:24:28;;;;;;;58.60;20.92;;;;;;;-6.80;100.00;100960.72;4941645;28;20047;-81
2022/12/13 02:26:57;;;;;;;60.58;23.33;;;;;;;-6.83;100.00;100960.84;4958351;28;20109;-80
2022/12/13 02:29:22;;;;;;;55.83;21.25;;;;;;;-6.83;100.00;100956.59;4944244;28;20052;-80
2022/12/13 02:32:00;;;;;;;66.43;23.73;;;;;;;-6.84;100.00;100965.03;4948929;28;20548;-82
2022/12/13 02:34:35;;;;;;;60.72;21.95;;;;;;;-6.85;100.00;100959.16;4928848;28;20047;-81
2022/12/13 02:37:17;;;;;;;57.13;20.77;;;;;;;-6.87;100.00;100960.91;4948612;28;20043;-81
2022/12/13 02:39:50;;;;;;;60.88;21.48;;;;;;;-6.88;100.00;100954.19;4976011;28;20325;-83
2022/12/13 02:42:24;;;;;;;60.85;21.55;;;;;;;-6.90;100.00;100958.44;4944768;28;20086;-83
2022/12/13 02:44:57;;;;;;;60.13;21.35;;;;;;;-6.91;100.00;100955.97;4983164;28;20073;-83
2022/12/13 02:47:26;;;;;;;55.70;21.05;;;;;;;-6.92;100.00;100961.88;4958505;28;20114;-82
2022/12/13 02:49:56;;;;;;;56.50;20.02;;;;;;;-6.95;100.00;100957.78;4942818;28;20036;-83
2022/12/13 02:52:27;;;;;;;58.45;21.73;;;;;;;-6.95;100.00;100950.19;4946096;28;20032;-83
2022/12/13 02:54:54;;;;;;;59.50;21.30;;;;;;;-6.98;100.00;100947.75;4959168;28;20388;-81
2022/12/13 02:57:35;;;;;;;56.58;21.13;;;;;;;-7.01;100.00;100950.34;4945313;28;20066;-81
2022/12/13 03:00:19;;;;;;;58.13;21.25;;;;;;;-7.03;100.00;100947.03;4947590;28;20566;-81
2022/12/13 03:02:57;;;;;;;58.05;20.58;;;;;;;-7.05;100.00;100946.25;4951489;28;20052;-83
2022/12/13 03:08:40;;;;;;;66.55;22.45;;;;;;;-7.07;100.00;100938.72;4965106;28;20039;-81
2022/12/13 03:11:10;;;;;;;61.22;20.70;;;;;;;-7.07;100.00;100935.38;4949439;28;20071;-81
2022/12/13 03:13:53;;;;;;;57.58;20.33;;;;;;;-7.10;100.00;100936.31;4944534;28;20091;-81
2022/12/13 03:16:33;;;;;;;60.65;21.80;;;;;;;-7.12;100.00;100940.56;4962234;28;20034;-82
2022/12/13 03:19:01;;;;;;;52.70;20.27;;;;;;;-7.13;100.00;100941.41;4939385;28;20043;-82
2022/12/13 03:21:27;;;;;;;54.08;20.67;;;;;;;-7.13;100.00;100933.84;4945536;28;20481;-81
2022/12/13 03:23:53;;;;;;;60.05;20.95;;;;;;;-7.15;100.00;100937.28;4944552;28;21025;-81
2022/12/13 03:26:26;;;;;;;57.00;20.48;;;;;;;-7.15;100.00;100937.28;4947295;28;20050;-81
2022/12/13 03:28:52;;;;;;;55.00;22.67;;;;;;;-7.17;100.00;100928.94;4945349;28;20035;-83
2022/12/13 03:31:18;;;;;;;65.72;22.60;;;;;;;-7.19;100.00;100928.16;4945384;28;20128;-81
2022/12/13 03:33:44;;;;;;;59.67;20.55;;;;;;;-7.21;100.00;100929.84;4946630;28;20042;-81
2022/12/13 03:36:10;;;;;;;68.65;22.25;;;;;;;-7.22;100.00;100928.22;4953022;28;20027;-82
2022/12/13 03:38:36;;;;;;;56.88;21.48;;;;;;;-7.24;100.00;100920.69;4938162;28;20039;-82
2022/12/13 03:41:07;;;;;;;60.88;22.05;;;;;;;-7.26;100.00;100922.44;4942061;28;20030;-81
2022/12/13 03:43:33;;;;;;;55.58;21.92;;;;;;;-7.29;100.00;100920.81;4943707;28;20043;-82
2022/12/13 03:46:00;;;;;;;59.78;21.25;;;;;;;-7.31;100.00;100922.56;4942545;28;20505;-81
2022/12/13 03:48:25;;;;;;;52.28;19.75;;;;;;;-7.33;100.00;100916.69;4944416;28;20036;-81
2022/12/13 03:50:52;;;;;;;63.15;22.20;;;;;;;-7.32;100.00;100917.56;4949798;28;20667;-82
2022/12/13 03:53:18;;;;;;;66.78;22.98;;;;;;;-7.28;100.00;100924.16;4958888;28;20051;-81
2022/12/13 03:55:44;;;;;;;61.85;22.25;;;;;;;-7.25;100.00;100919.06;4952854;28;20035;-82
2022/12/13 03:58:09;;;;;;;61.20;22.70;;;;;;;-7.24;100.00;100913.13;4947176;28;20094;-82
2022/12/13 04:00:35;;;;;;;60.80;20.85;;;;;;;-7.27;100.00;100918.25;4962738;28;20031;-81
2022/12/13 04:03:00;;;;;;;70.38;23.65;;;;;;;-7.24;100.00;100920.69;4947883;28;20040;-81
2022/12/13 04:05:27;;;;;;;63.63;24.77;;;;;;;-7.10;100.00;100910.25;4973164;28;20043;-81
2022/12/13 04:07:52;;;;;;;77.25;25.88;;;;;;;-7.10;100.00;100913.59;4945597;28;20657;-81
2022/12/13 04:10:18;;;;;;;77.13;26.17;;;;;;;-7.09;100.00;100914.44;4943119;28;20034;-82
2022/12/13 04:15:27;;;;;;;89.68;28.25;;;;;;;-6.86;100.00;100919.66;4943393;28;20035;-81
2022/12/13 04:17:53;;;;;;;81.63;28.60;;;;;;;-6.82;100.00;100922.13;4946309;28;20381;-80
2022/12/13 04:20:18;;;;;;;80.07;27.33;;;;;;;-6.79;100.00;100917.00;4950739;28;20035;-81
2022/12/13 04:22:43;;;;;;;80.07;27.02;;;;;;;-6.85;100.00;100911.25;4957462;28;20040;-81
2022/12/13 04:25:10;;;;;;;80.18;27.60;;;;;;;-6.91;100.00;100919.00;4949696;28;20044;-81
2022/12/13 04:27:36;;;;;;;78.70;27.67;;;;;;;-6.92;100.00;100914.81;4950434;28;20023;-81
2022/12/13 04:30:04;;;;;;;75.25;26.70;;;;;;;-6.98;100.00;100909.94;4932873;28;20646;-81
2022/12/13 04:32:30;;;;;;;70.43;24.77;;;;;;;-7.05;100.00;100906.72;4942194;28;20085;-81
2022/12/13 04:34:56;;;;;;;84.68;27.45;;;;;;;-7.09;100.00;100909.38;4947561;28;20047;-81
2022/12/13 04:37:21;;;;;;;74.22;26.05;;;;;;;-7.12;100.00;100906.94;4954878;28;20074;-80
2022/12/13 04:39:47;;;;;;;76.35;26.65;;;;;;;-7.10;100.00;100905.19;4948266;28;20036;-80
2022/12/13 04:42:12;;;;;;;73.57;27.02;;;;;;;-7.10;100.00;100907.72;4933675;28;20043;-81
2022/12/13 04:44:38;;;;;;;72.75;26.60;;;;;;;-7.13;100.00;100908.63;4945677;28;20697;-81
2022/12/13 04:47:04;;;;;;;75.85;26.13;;;;;;;-7.14;100.00;100906.16;4944891;28;20094;-81
2022/12/13 04:49:30;;;;;;;81.18;26.35;;;;;;;-7.16;100.00;100913.75;4947049;28;20039;-81
2022/12/13 04:51:56;;;;;;;70.97;25.65;;;;;;;-7.17;100.00;100913.81;4932675;28;20031;-81
2022/12/13 04:54:22;;;;;;;74.50;25.05;;;;;;;-7.21;100.00;100912.22;4945225;28;20051;-81
2022/12/13 04:56:47;;;;;;;67.32;24.20;;;;;;;-7.24;100.00;100913.13;4939314;28;20514;-81
2022/12/13 04:59:12;;;;;;;74.30;28.67;;;;;;;-7.24;100.00;100911.44;4948014;28;20048;-81
2022/12/13 05:01:38;;;;;;;75.93;26.27;;;;;;;-7.27;100.00;100911.53;4957080;28;20050;-80
2022/12/13 05:04:03;;;;;;;73.03;27.00;;;;;;;-7.28;100.00;100904.81;4947033;28;20039;-81
2022/12/13 05:06:29;;;;;;;77.15;26.52;;;;;;;-7.33;100.00;100903.28;4944686;28;20581;-82
2022/12/13 05:08:54;;;;;;;73.25;27.27;;;;;;;-7.35;100.00;100905.03;4947575;28;20042;-82
2022/12/13 05:11:20;;;;;;;73.05;25.65;;;;;;;-7.37;100.00;100905.06;4944480;28;20035;-81
2022/12/13 05:13:45;;;;;;;64.28;24.23;;;;;;;-7.42;100.00;100896.81;4942955;28;20043;-81
2022/12/13 05:16:11;;;;;;;70.47;24.80;;;;;;;-7.44;100.00;100898.50;4949515;28;20055;-81
2022/12/13 05:18:37;;;;;;;69.10;25.77;;;;;;;-7.46;100.00;100892.69;4947454;28;20046;-80
2022/12/13 05:21:07;;;;;;;72.18;26.05;;;;;;;-7.49;100.00;100887.75;4942533;28;20047;-81
2022/12/13 05:23:33;;;;;;;72.00;26.20;;;;;;;-7.48;100.00;100890.22;4959881;28;20280;-80
2022/12/13 05:25:58;;;;;;;74.82;26.65;;;;;;;-7.45;100.00;100885.09;4943584;28;20035;-82
2022/12/13 05:28:27;;;;;;;66.70;24.55;;;;;;;-7.45;100.00;100885.09;4945501;28;20492;-81
2022/12/13 05:31:05;;;;;;;77.57;25.58;;;;;;;-7.48;100.00;100881.81;4945424;28;20086;-81
2022/12/13 05:33:31;;;;;;;78.80;28.40;;;;;;;-7.40;100.00;100882.47;4942258;28;20115;-81
2022/12/13 05:35:56;;;;;;;74.10;25.02;;;;;;;-7.35;100.00;100889.91;4958452;28;20122;-82
2022/12/13 05:38:22;;;;;;;80.22;28.05;;;;;;;-7.15;100.00;100882.66;4945941;28;20047;-81
2022/12/13 05:40:47;;;;;;;80.88;27.25;;;;;;;-7.01;100.00;100882.25;4963185;28;20043;-80
2022/12/13 05:43:13;;;;;;;79.82;29.02;;;;;;;-7.01;100.00;100884.78;4946459;28;21121;-82
2022/12/13 05:45:38;;;;;;;81.70;28.35;;;;;;;-6.99;100.00;100875.47;4948043;28;20456;-81
2022/12/13 05:48:04;;;;;;;87.75;31.27;;;;;;;-6.92;100.00;100873.63;4960830;28;21690;-81
2022/12/13 05:50:30;;;;;;;90.07;29.75;;;;;;;-6.71;100.00;100870.50;4945050;28;20630;-81
2022/12/13 05:52:55;;;;;;;86.45;28.95;;;;;;;-6.71;100.00;100870.50;4945400;28;20039;-81
2022/12/13 05:55:21;;;;;;;88.45;30.20;;;;;;;-6.61;100.00;100875.28;4946585;28;20606;-81
2022/12/13 05:57:47;;;;;;;82.25;28.35;;;;;;;-6.58;100.00;100876.00;4973826;28;20054;-80
2022/12/13 06:00:13;;;;;;;86.13;28.40;;;;;;;-6.57;100.00;100877.69;4945708;28;20034;-81
2022/12/13 06:02:40;;;;;;;81.43;28.95;;;;;;;-6.39;100.00;100883.88;4948464;28;20043;-81
2022/12/13 06:05:06;;;;;;;83.15;28.15;;;;;;;-6.37;100.00;100881.31;4947386;28;20065;-80
2022/12/13 06:07:32;;;;;;;75.38;27.67;;;;;;;-6.37;100.00;100884.66;4944405;28;20027;-81
2022/12/13 06:09:57;;;;;;;82.97;28.88;;;;;;;-6.40;100.00;100888.97;4949560;28;20659;-81
2022/12/13 06:12:23;;;;;;;81.20;27.98;;;;;;;-6.29;100.00;100885.25;4933146;28;20032;-80
2022/12/13 06:14:49;;;;;;;78.10;28.35;;;;;;;-6.37;100.00;100886.34;4944932;28;20031;-79
2022/12/13 06:17:14;;;;;;;77.10;28.02;;;;;;;-6.35;100.00;100882.09;4964666;28;20031;-80
2022/12/13 06:19:40;;;;;;;86.95;29.55;;;;;;;-6.21;100.00;100879.16;4949134;28;20039;-81
2022/12/13 06:22:05;;;;;;;83.63;28.65;;;;;;;-6.29;100.00;100879.38;4945083;28;20032;-80
2022/12/13 06:24:31;;;;;;;86.70;30.23;;;;;;;-6.24;100.00;100879.25;4946989;28;20557;-80
2022/12/13 06:26:57;;;;;;;74.00;26.02;;;;;;;-6.30;100.00;100880.25;4944788;28;20102;-81
2022/12/13 06:29:23;;;;;;;79.25;29.17;;;;;;;-6.39;100.00;100881.34;4947996;28;20081;-80
2022/12/13 06:31:58;;;;;;;89.50;28.52;;;;;;;-6.41;100.00;100882.28;4942285;28;20051;-81
2022/12/13 06:34:25;;;;;;;72.40;27.92;;;;;;;-6.39;100.00;100885.56;4943377;28;20039;-81
2022/12/13 06:36:50;;;;;;;81.50;28.23;;;;;;;-6.36;100.00;100883.78;4949591;28;20031;-80
2022/12/13 06:39:16;;;;;;;87.38;28.98;;;;;;;-6.37;100.00;100879.59;4944897;28;20042;-80
2022/12/13 06:41:41;;;;;;;86.05;29.05;;;;;;;-6.47;100.00;100889.16;4952816;28;20038;-80
2022/12/13 06:44:07;;;;;;;88.03;28.02;;;;;;;-6.50;100.00;100889.25;4943375;28;20040;-80
2022/12/13 06:46:33;;;;;;;86.60;29.10;;;;;;;-6.42;100.00;100893.22;4944484;28;20038;-80
2022/12/13 06:48:58;;;;;;;82.90;29.33;;;;;;;-6.56;100.00;100884.38;4961349;28;20047;-81
2022/12/13 06:51:24;;;;;;;92.70;30.02;;;;;;;-6.46;100.00;100883.25;4944643;28;20042;-80
2022/12/13 06:53:49;;;;;;;85.95;30.13;;;;;;;-6.44;100.00;100882.34;4944897;28;20039;-80
2022/12/13 06:56:15;;;;;;;86.40;31.50;;;;;;;-6.47;100.00;100883.28;4958302;28;20039;-79
2022/12/13 06:58:41;;;;;;;88.18;31.52;;;;;;;-6.49;100.00;100885.84;4953091;28;20062;-81
2022/12/13 07:01:13;;;;;;;98.40;30.92;;;;;;;-6.47;100.00;100881.56;4946020;28;20595;-81
2022/12/13 07:03:39;;;;;;;91.95;32.05;;;;;;;-6.44;100.00;100882.34;4946243;28;20047;-81
2022/12/13 07:06:08;;;;;;;92.85;32.70;;;;;;;-6.44;100.00;100875.63;4946172;28;20602;-81
2022/12/13 07:08:34;;;;;;;91.57;30.15;;;;;;;-6.39;100.00;100880.53;4930226;28;20047;-80
2022/12/13 07:11:01;;;;;;;117.10;39.38;;;;;;;-6.38;100.00;100885.53;4946923;28;20055;-80
2022/12/13 07:13:27;;;;;;;92.55;30.42;;;;;;;-6.48;100.00;100891.72;4945397;28;20556;-80
2022/12/13 07:15:52;;;;;;;91.45;31.85;;;;;;;-6.44;100.00;100890.78;4949012;28;20098;-79
2022/12/13 07:18:18;;;;;;;85.78;31.73;;;;;;;-6.34;100.00;100888.78;4947568;28;20512;-81
2022/12/13 07:20:43;;;;;;;93.28;33.00;;;;;;;-6.33;100.00;100898.00;4945528;28;20031;-80
2022/12/13 07:23:10;;;;;;;90.10;34.78;;;;;;;-6.36;100.00;100896.41;4949248;28;20110;-79
2022/12/13 07:25:35;;;;;;;94.60;31.95;;;;;;;-6.39;100.00;100901.53;4947526;28;20027;-81
2022/12/13 07:28:06;;;;;;;85.22;31.95;;;;;;;-6.52;100.00;100895.19;4949932;28;20126;-80
2022/12/13 07:30:35;;;;;;;91.80;33.25;;;;;;;-6.53;100.00;100896.09;4950224;28;20054;-81
2022/12/13 07:33:02;;;;;;;87.57;31.70;;;;;;;-6.40;100.00;100899.91;4951070;28;20054;-80
2022/12/13 07:35:27;;;;;;;83.75;30.08;;;;;;;-6.38;100.00;100894.81;4946048;28;20055;-81
2022/12/13 07:37:53;;;;;;;78.57;28.60;;;;;;;-6.35;100.00;100889.66;4934695;28;20781;-81
2022/12/13 07:40:18;;;;;;;78.35;29.17;;;;;;;-6.38;100.00;100887.25;4950297;28;20019;-80
2022/12/13 07:42:52;;;;;;;79.50;29.50;;;;;;;-6.35;100.00;100899.75;4943776;28;20043;-81
2022/12/13 07:45:18;;;;;;;81.15;28.52;;;;;;;-6.32;100.00;100895.44;4946675;28;20131;-81
2022/12/13 07:47:43;;;;;;;89.88;28.30;;;;;;;-6.34;100.00;100883.75;4937366;28;20389;-80
2022/12/13 07:50:09;;;;;;;81.35;29.80;;;;;;;-6.33;100.00;100892.97;4959401;28;20039;-80
2022/12/13 07:52:34;;;;;;;82.85;28.65;;;;;;;-6.34;100.00;100894.66;4945528;28;20452;-81
2022/12/13 07:55:01;;;;;;;75.65;27.95;;;;;;;-6.36;100.00;100896.41;4960359;28;20035;-80
2022/12/13 07:57:26;;;;;;;75.30;29.17;;;;;;;-6.28;100.00;100893.66;4944963;28;20124;-80
2022/12/13 07:59:52;;;;;;;79.38;28.33;;;;;;;-6.24;100.00;100890.16;4964034;28;20512;-81
2022/12/13 08:02:17;;;;;;;82.07;28.13;;;;;;;-6.25;100.00;100898.63;4947454;28;20035;-82
2022/12/13 08:04:43;;;;;;;74.63;28.83;;;;;;;-6.24;100.00;100905.31;4952753;28;20047;-80
2022/12/13 08:07:09;;;;;;;80.53;27.80;;;;;;;-6.19;100.00;100893.38;4960789;28;20042;-80
2022/12/13 08:09:35;;;;;;;78.90;30.13;;;;;;;-6.13;100.00;100902.47;4951400;28;20987;-79
2022/12/13 08:12:00;;;;;;;77.85;28.88;;;;;;;-6.26;100.00;100902.81;4950261;28;20083;-80
2022/12/13 08:14:26;;;;;;;79.05;26.92;;;;;;;-5.95;100.00;100901.06;4951172;28;20166;-79
2022/12/13 08:16:52;;;;;;;71.50;26.13;;;;;;;-6.01;100.00;100899.53;4968930;28;20032;-79
2022/12/13 08:19:18;;;;;;;76.30;28.08;;;;;;;-5.98;100.00;100902.00;4958619;28;20039;-79
2022/12/13 08:21:43;;;;;;;78.20;27.65;;;;;;;-5.88;100.00;100910.06;4964307;28;20059;-79
2022/12/13 08:24:09;;;;;;;77.05;28.10;;;;;;;-5.88;100.00;100910.06;4960951;28;20039;-79
2022/12/13 08:26:34;;;;;;;78.20;28.02;;;;;;;-5.89;100.00;100916.00;4954838;28;20039;-79
2022/12/13 08:29:00;;;;;;;79.90;28.33;;;;;;;-5.83;100.00;100915.81;4944446;28;20043;-79
2022/12/13 08:31:26;;;;;;;74.65;28.13;;;;;;;-5.86;100.00;100905.78;4947712;28;20023;-80
2022/12/13 08:33:51;;;;;;;79.28;28.50;;;;;;;-5.86;100.00;100913.38;4952690;28;20064;-80
2022/12/13 08:36:22;;;;;;;78.97;27.95;;;;;;;-5.88;100.00;100908.41;4951217;28;20023;-80
2022/12/13 08:38:49;;;;;;;87.82;28.58;;;;;;;-5.83;100.00;100913.28;4947016;28;20760;-79
2022/12/13 08:41:14;;;;;;;88.22;28.42;;;;;;;-5.80;100.00;100913.19;4951554;28;20046;-79
2022/12/13 08:43:40;;;;;;;80.82;28.48;;;;;;;-5.79;100.00;100912.31;4950879;28;20043;-78
2022/12/13 08:46:05;;;;;;;86.15;30.08;;;;;;;-5.78;100.00;100903.88;4952367;28;20047;-78
2022/12/13 08:48:31;;;;;;;79.70;29.30;;;;;;;-5.64;100.00;100905.13;4953445;28;20403;-79
2022/12/13 08:51:05;;;;;;;78.28;27.13;;;;;;;-5.70;100.00;100904.44;4955100;28;20043;-79
2022/12/13 08:53:31;;;;;;;77.15;28.48;;;;;;;-5.75;100.00;100913.84;4956491;28;20433;-79
2022/12/13 08:56:04;;;;;;;76.78;28.10;;;;;;;-5.67;100.00;100909.41;4953100;28;20094;-80
2022/12/13 08:58:30;;;;;;;80.60;27.88;;;;;;;-5.61;100.00;100918.50;4938297;28;20062;-79
2022/12/13 09:00:55;;;;;;;81.63;28.25;;;;;;;-5.60;100.00;100922.66;4951868;28;20039;-80
2022/12/13 09:03:21;;;;;;;74.03;26.52;;;;;;;-5.49;100.00;100929.91;4935931;28;20094;-79
2022/12/13 09:05:47;;;;;;;78.10;28.48;;;;;;;-5.41;100.00;100927.13;4951536;28;20448;-79
2022/12/13 09:08:14;;;;;;;74.85;27.70;;;;;;;-5.34;100.00;100923.50;4956098;28;20042;-79
2022/12/13 09:10:39;;;;;;;80.95;28.35;;;;;;;-5.31;100.00;100921.72;4948056;28;20509;-81
2022/12/13 09:13:05;;;;;;;81.55;27.75;;;;;;;-5.27;100.00;100924.97;4960547;28;20046;-80
2022/12/13 09:15:31;;;;;;;78.53;27.85;;;;;;;-5.30;100.00;100925.88;4953030;28;20038;-79
2022/12/13 09:17:57;;;;;;;72.80;28.23;;;;;;;-5.28;100.00;100928.34;4952818;28;20073;-80
2022/12/13 09:20:22;;;;;;;73.75;25.85;;;;;;;-5.13;100.00;100932.06;4949691;28;20713;-80
2022/12/13 09:22:48;;;;;;;84.95;28.27;;;;;;;-5.06;100.00;100922.59;4946825;28;20055;-78
2022/12/13 09:25:14;;;;;;;79.70;27.00;;;;;;;-5.12;100.00;100926.16;4949713;28;20039;-80
2022/12/13 09:27:39;;;;;;;80.25;27.73;;;;;;;-5.07;100.00;100926.78;4912063;28;1081553;-81
2022/12/13 09:30:06;;;;;;;74.80;26.90;;;;;;;-4.89;100.00;100916.03;4953704;28;20030;-80
2022/12/13 09:32:32;;;;;;;76.00;27.20;;;;;;;-4.97;100.00;100910.44;4954945;28;20031;-80
2022/12/13 09:34:59;;;;;;;76.15;26.45;;;;;;;-4.93;100.00;100914.50;4952476;28;20038;-81
2022/12/13 09:37:24;;;;;;;76.03;26.05;;;;;;;-4.77;100.00;100916.47;4945902;28;20076;-79
2022/12/13 09:39:50;;;;;;;70.90;25.02;;;;;;;-4.67;100.00;100917.81;4954162;28;20066;-79
2022/12/13 09:42:25;;;;;;;76.43;26.30;;;;;;;-4.78;100.00;100922.44;4952750;28;20030;-79
2022/12/13 09:44:58;;;;;;;69.72;24.35;;;;;;;-4.58;100.00;100914.94;4945376;28;20046;-80
2022/12/13 09:47:34;;;;;;;;;;;;;;;-4.58;100.00;100911.59;4965233;28;20074;-80
2022/12/13 09:50:04;;;;;;;62.85;24.73;;;;;;;-4.50;100.00;100912.97;4949751;28;20288;-78
2022/12/13 09:52:36;;;;;;;71.22;26.52;;;;;;;-4.45;100.00;100914.50;4985165;28;20068;-79
2022/12/13 09:55:15;;;;;;;78.07;24.92;;;;;;;-4.33;100.00;100917.41;4949285;28;20036;-79
2022/12/13 09:57:42;;;;;;;67.90;23.42;;;;;;;-4.34;100.00;100913.19;4935247;28;20039;-80
2022/12/13 10:00:13;;;;;;;62.90;23.40;;;;;;;-4.37;100.00;100915.88;4949031;28;20034;-79
2022/12/13 10:02:47;;;;;;;72.20;25.45;;;;;;;-4.25;99.79;100901.91;4949034;28;20054;-79
2022/12/13 10:05:18;;;;;;;72.53;25.27;;;;;;;-4.26;100.00;100909.56;4944186;28;20496;-78
2022/12/13 10:07:44;;;;;;;69.47;24.20;;;;;;;-4.23;100.00;100906.91;4947314;28;20283;-78
2022/12/13 10:10:15;;;;;;;62.67;23.83;;;;;;;-4.13;100.00;100896.34;4949918;28;20031;-77
2022/12/13 10:12:49;;;;;;;70.35;25.02;;;;;;;-4.13;99.50;100898.06;4949641;28;20043;-78
2022/12/13 10:15:17;;;;;;;60.53;23.85;;;;;;;-4.08;99.05;100893.66;4928149;28;20039;-78
2022/12/13 10:17:47;;;;;;;66.40;22.70;;;;;;;-4.12;99.86;100889.59;4946304;28;20047;-78
2022/12/13 10:20:27;;;;;;;61.40;22.25;;;;;;;-4.06;99.46;100881.75;4947772;28;20082;-78
2022/12/13 10:22:53;;;;;;;73.20;25.70;;;;;;;-3.95;99.50;100884.69;4944979;28;20055;-78
2022/12/13 10:25:53;;;;;;;72.32;26.70;;;;;;;-3.89;99.14;100875.22;4950340;28;20144;-79
2022/12/13 10:28:29;;;;;;;64.65;25.05;;;;;;;-3.81;99.26;100879.06;4949410;28;20129;-78
2022/12/13 10:30:56;;;;;;;65.20;23.27;;;;;;;-3.84;98.51;100871.59;4948332;28;20040;-78
2022/12/13 10:33:26;;;;;;;66.82;25.40;;;;;;;-3.91;99.71;100865.13;4932992;28;20047;-78
2022/12/13 10:36:14;;;;;;;79.05;28.85;;;;;;;-3.72;99.24;100862.66;4949220;28;20093;-79
2022/12/13 10:38:45;;;;;;;71.90;23.75;;;;;;;-3.76;99.43;100854.38;4959467;28;20548;-78
2022/12/13 10:41:24;;;;;;;66.82;24.60;;;;;;;-3.68;98.67;100859.13;4968174;28;20058;-77
2022/12/13 10:44:28;;;;;;;58.85;23.08;;;;;;;-3.55;98.47;100847.56;4945018;28;20054;-79
2022/12/13 10:47:08;;;;;;;57.92;22.60;;;;;;;-3.49;97.61;100843.97;4932449;29;20032;-77
2022/12/13 10:49:46;;;;;;;61.20;24.17;;;;;;;-3.38;97.53;100839.25;4910963;29;20479;-78
2022/12/13 10:52:23;;;;;;;59.15;22.70;;;;;;;-3.43;96.73;100837.81;4936938;28;20047;-78
2022/12/13 10:54:49;;;;;;;56.58;21.27;;;;;;;-3.35;97.35;100834.06;4946982;28;20085;-79
2022/12/13 10:57:16;;;;;;;57.45;22.88;;;;;;;-3.30;97.92;100836.38;4952612;28;20097;-79
2022/12/13 10:59:44;;;;;;;61.03;22.35;;;;;;;-3.30;97.28;100823.72;4945455;28;20060;-78
2022/12/13 11:02:38;;;;;;;61.67;20.50;;;;;;;-3.20;96.70;100819.91;4947935;28;20043;-78
2022/12/13 11:05:24;;;;;;;54.08;20.08;;;;;;;-3.24;95.69;100820.09;4942654;28;20058;-79
2022/12/13 11:07:50;;;;;;;54.55;20.60;;;;;;;-3.18;95.57;100814.75;4945843;28;20043;-79
2022/12/13 11:10:20;;;;;;;51.05;20.63;;;;;;;-3.14;95.14;100808.66;4948584;28;20039;-80
2022/12/13 11:12:48;;;;;;;56.20;22.02;;;;;;;-3.18;94.74;100802.91;4943683;28;20046;-79